Terminal Aerodrome Forecast
Issued by NWS

Home | Current Version | Previous Version | Text Only | Print | Product List | Glossary On
Versions: 1 2 3 4 5 6 7 8 9 10 11 12 13 14 15 16 17 18
000
FTUS45 KSLC 182338
TAFOGD
TAF
KOGD 182338Z 1900/1924 33009KT P6SM VCSH SCT070 BKN110
     FM190700 19005KT P6SM SCT070 BKN150
     FM191900 22005KT P6SM VCSH SCT070 BKN100=

USA.gov is the U.S. government's official web portal to all federal, state and local government web resources and services.